createdAt,value
2023-01-20T00:01:43.028Z,89.76
2023-01-20T00:05:41.159Z,89.75
2023-01-20T00:09:40.060Z,89.69
2023-01-20T00:13:40.120Z,89.61
2023-01-20T00:17:37.978Z,89.59
2023-01-20T00:21:36.044Z,89.56
2023-01-20T00:25:34.982Z,89.52
2023-01-20T00:29:33.026Z,89.52
2023-01-20T00:33:31.004Z,89.51
2023-01-20T00:37:29.092Z,89.49
2023-01-20T00:41:27.069Z,89.44
2023-01-20T00:45:24.980Z,89.43
2023-01-20T00:49:24.929Z,89.41
2023-01-20T00:53:23.052Z,89.42
2023-01-20T00:57:20.932Z,89.41
2023-01-20T01:01:19.081Z,89.44
2023-01-20T01:05:16.942Z,89.45
2023-01-20T01:09:14.965Z,89.47
2023-01-20T01:13:17.963Z,89.48
2023-01-20T01:17:15.941Z,89.47
2023-01-20T01:21:14.203Z,89.45
2023-01-20T01:25:12.064Z,89.40
2023-01-20T01:29:09.930Z,89.41
2023-01-20T01:33:07.890Z,89.43
2023-01-20T01:37:06.919Z,89.44
2023-01-20T01:41:05.869Z,89.46
2023-01-20T01:45:24.896Z,89.48
2023-01-20T01:49:40.899Z,89.47
2023-01-20T01:53:41.888Z,89.48
2023-01-20T01:57:39.966Z,89.48
2023-01-20T02:01:37.962Z,89.45
2023-01-20T02:05:39.948Z,89.42
2023-01-20T02:09:39.846Z,89.40
2023-01-20T02:13:39.101Z,89.41
2023-01-20T02:17:50.820Z,89.45
2023-01-20T02:21:53.839Z,89.47
2023-01-20T02:26:28.823Z,89.47
2023-01-20T02:30:50.881Z,89.46
2023-01-20T02:35:00.836Z,89.46
2023-01-20T02:39:10.794Z,89.43
2023-01-20T02:43:26.798Z,89.42
2023-01-20T02:47:33.811Z,89.42
2023-01-20T02:51:40.844Z,89.38
2023-01-20T02:55:56.837Z,89.38
2023-01-20T02:59:57.772Z,89.42
2023-01-20T03:04:00.837Z,89.43
2023-01-20T03:08:00.764Z,89.46
2023-01-20T03:12:07.822Z,89.47
2023-01-20T03:16:13.912Z,89.54
2023-01-20T03:20:11.766Z,89.57
2023-01-20T03:24:15.768Z,89.46
2023-01-20T03:28:13.844Z,89.17
2023-01-20T03:32:16.719Z,89.41
2023-01-20T03:36:14.818Z,89.61
2023-01-20T03:40:12.800Z,89.84
2023-01-20T03:44:21.735Z,90.14
2023-01-20T03:48:31.693Z,90.15
2023-01-20T03:52:49.773Z,90.19
2023-01-20T03:56:54.689Z,90.43
2023-01-20T04:00:56.717Z,90.57
2023-01-20T04:04:57.710Z,90.63
2023-01-20T04:09:09.704Z,90.61
2023-01-20T04:13:07.692Z,90.42
2023-01-20T04:17:11.824Z,90.44
2023-01-20T04:21:17.635Z,90.54
2023-01-20T04:25:28.678Z,90.55
2023-01-20T04:29:26.649Z,90.57
2023-01-20T04:33:24.639Z,90.56
2023-01-20T04:37:22.608Z,90.56
2023-01-20T04:41:20.783Z,90.54
2023-01-20T04:45:20.710Z,90.51
2023-01-20T04:49:18.606Z,90.46
2023-01-20T04:53:16.666Z,90.33
2023-01-20T04:57:14.646Z,90.29
2023-01-20T05:01:16.643Z,90.27
2023-01-20T05:05:14.917Z,90.19
2023-01-20T05:09:12.573Z,90.11
2023-01-20T05:13:10.615Z,90.02
2023-01-20T05:17:08.596Z,89.92
2023-01-20T05:21:06.718Z,89.85
2023-01-20T05:25:04.600Z,89.80
2023-01-20T05:29:02.583Z,89.71
2023-01-20T05:33:00.561Z,89.63
2023-01-20T05:36:58.588Z,89.56
2023-01-20T05:40:56.608Z,89.50
2023-01-20T05:44:54.544Z,89.43
2023-01-20T05:48:52.548Z,89.35
2023-01-20T05:52:50.649Z,89.26
2023-01-20T05:56:48.625Z,89.20
2023-01-20T06:00:46.515Z,89.04
2023-01-20T06:04:37.598Z,89.04
2023-01-20T06:08:35.492Z,89.03
2023-01-20T06:12:33.576Z,89.00
2023-01-20T06:16:32.562Z,88.84
2023-01-20T06:20:30.462Z,88.82
2023-01-20T06:24:28.543Z,88.74
2023-01-20T06:28:26.492Z,88.43
2023-01-20T06:32:25.495Z,88.42
2023-01-20T06:36:24.478Z,88.31
2023-01-20T06:40:22.449Z,88.70
2023-01-20T06:44:20.436Z,89.10
2023-01-20T06:48:18.475Z,89.28
2023-01-20T06:52:16.416Z,89.48
2023-01-20T06:56:15.522Z,89.68
2023-01-20T06:59:56.740Z,89.72
2023-01-20T07:03:21.095Z,89.77
2023-01-20T07:06:44.933Z,89.80
2023-01-20T07:10:09.901Z,89.82
2023-01-20T07:13:33.816Z,89.80
2023-01-20T07:16:57.711Z,89.73
2023-01-20T07:20:21.510Z,89.74
2023-01-20T07:23:45.782Z,89.73
2023-01-20T07:27:09.607Z,89.73
2023-01-20T07:30:33.682Z,89.67
2023-01-20T07:33:58.659Z,89.62
2023-01-20T07:37:22.550Z,89.57
2023-01-20T07:40:46.566Z,89.45
2023-01-20T07:44:10.858Z,89.47
2023-01-20T07:47:34.643Z,89.47
2023-01-20T07:51:03.125Z,89.58
2023-01-20T07:54:27.042Z,89.40
2023-01-20T07:57:50.887Z,89.17
2023-01-20T08:01:20.617Z,89.36
2023-01-20T08:04:44.682Z,89.70
2023-01-20T08:08:08.480Z,90.06
2023-01-20T08:11:33.207Z,90.34
2023-01-20T08:14:57.181Z,90.59
2023-01-20T08:18:21.045Z,90.69
2023-01-20T08:21:44.891Z,90.87
2023-01-20T08:25:09.382Z,90.97
2023-01-20T08:28:37.257Z,91.17
2023-01-20T08:32:02.149Z,91.24
2023-01-20T08:35:26.411Z,91.30
2023-01-20T08:38:50.532Z,91.51
2023-01-20T08:42:16.872Z,91.59
2023-01-20T08:45:43.718Z,91.56
2023-01-20T08:49:18.501Z,91.47
2023-01-20T08:52:43.542Z,91.24
2023-01-20T08:56:07.960Z,91.20
2023-01-20T08:59:31.835Z,90.34
2023-01-20T09:02:55.788Z,89.94
2023-01-20T09:06:21.745Z,89.85
2023-01-20T09:09:45.563Z,89.39
2023-01-20T09:13:09.499Z,89.17
2023-01-20T09:16:33.684Z,88.72
2023-01-20T09:19:57.654Z,88.26
2023-01-20T09:23:21.448Z,87.96
2023-01-20T09:26:45.633Z,87.82
2023-01-20T09:30:10.542Z,87.60
2023-01-20T09:33:38.238Z,87.92
2023-01-20T09:37:23.326Z,87.81
2023-01-20T09:41:23.780Z,87.83
2023-01-20T09:44:47.925Z,87.70
2023-01-20T09:48:39.868Z,87.91
2023-01-20T09:52:32.290Z,87.87
2023-01-20T09:55:59.597Z,87.98
2023-01-20T09:59:33.359Z,87.62
2023-01-20T10:03:06.758Z,87.21
2023-01-20T10:07:06.765Z,87.20
2023-01-20T10:10:39.234Z,87.13
2023-01-20T10:14:15.283Z,87.49
2023-01-20T10:17:50.693Z,87.61
2023-01-20T10:21:35.125Z,87.53
2023-01-20T10:25:06.722Z,87.25
2023-01-20T10:28:36.220Z,86.90
2023-01-20T10:32:01.904Z,87.24
2023-01-20T10:35:29.672Z,87.58
2023-01-20T10:39:11.428Z,87.13
2023-01-20T10:42:35.403Z,86.60
2023-01-20T10:46:40.610Z,86.84
2023-01-20T10:50:12.807Z,87.35
2023-01-20T10:53:54.586Z,87.21
2023-01-20T10:57:18.463Z,87.47
2023-01-20T11:00:43.756Z,87.60
2023-01-20T11:04:20.433Z,87.79
2023-01-20T11:07:45.577Z,87.96
2023-01-20T11:11:14.086Z,87.75
2023-01-20T11:14:38.338Z,87.73
2023-01-20T11:18:17.322Z,87.97
2023-01-20T11:21:41.603Z,87.84
2023-01-20T11:25:06.877Z,87.52
2023-01-20T11:28:48.300Z,87.85
2023-01-20T11:32:44.624Z,87.96
2023-01-20T11:36:19.984Z,87.86
2023-01-20T11:40:02.224Z,88.28
2023-01-20T11:43:40.762Z,88.50
2023-01-20T11:47:28.202Z,88.53
2023-01-20T11:50:58.659Z,88.68
2023-01-20T11:54:28.487Z,88.79
2023-01-20T11:58:02.407Z,88.99
2023-01-20T12:01:32.233Z,89.02
2023-01-20T12:05:23.111Z,88.92
2023-01-20T12:08:52.570Z,88.52
2023-01-20T12:12:33.676Z,88.13
2023-01-20T12:16:02.230Z,87.88
2023-01-20T12:19:40.479Z,87.89
2023-01-20T12:23:39.185Z,87.80
2023-01-20T12:27:03.149Z,87.91
2023-01-20T12:30:43.502Z,87.97
2023-01-20T12:34:13.440Z,88.02
2023-01-20T12:37:48.353Z,87.95
2023-01-20T12:41:23.481Z,88.14
2023-01-20T12:45:00.890Z,88.37
2023-01-20T12:48:38.480Z,88.56
2023-01-20T12:52:17.077Z,88.67
2023-01-20T12:56:00.369Z,88.83
2023-01-20T12:59:44.952Z,88.95
2023-01-20T13:03:40.543Z,89.11
2023-01-20T13:07:19.693Z,89.10
2023-01-20T13:10:52.500Z,89.00
2023-01-20T13:14:31.095Z,88.92
2023-01-20T13:18:16.743Z,88.80
2023-01-20T13:21:41.905Z,88.86
2023-01-20T13:25:07.363Z,89.13
2023-01-20T13:28:32.340Z,89.35
2023-01-20T13:31:56.754Z,89.32
2023-01-20T13:35:45.003Z,89.15
2023-01-20T13:39:31.546Z,89.06
2023-01-20T13:42:55.283Z,89.17
2023-01-20T13:46:19.078Z,89.34
2023-01-20T13:49:52.571Z,89.43
2023-01-20T13:53:22.579Z,89.23
2023-01-20T13:57:20.424Z,89.11
2023-01-20T14:00:45.001Z,89.09
2023-01-20T14:04:16.976Z,89.21
2023-01-20T14:07:45.258Z,89.28
2023-01-20T14:11:17.678Z,89.33
2023-01-20T14:14:44.926Z,89.45
2023-01-20T14:18:16.141Z,89.67
2023-01-20T14:21:42.333Z,89.55
2023-01-20T14:25:21.448Z,89.41
2023-01-20T14:28:51.381Z,89.25
2023-01-20T14:32:38.969Z,89.24
2023-01-20T14:36:39.918Z,89.21
2023-01-20T14:40:43.784Z,89.12
2023-01-20T14:44:44.882Z,89.28
2023-01-20T14:48:42.785Z,89.31
2023-01-20T14:52:45.805Z,89.28
2023-01-20T14:56:43.792Z,89.53
2023-01-20T15:00:41.771Z,89.83
2023-01-20T15:04:39.810Z,89.82
2023-01-20T15:08:39.766Z,90.09
2023-01-20T15:13:06.729Z,90.21
2023-01-20T15:17:05.772Z,90.23
2023-01-20T15:21:16.859Z,90.20
2023-01-20T15:25:26.833Z,90.25
2023-01-20T15:29:35.793Z,90.20
2023-01-20T15:33:33.784Z,90.03
2023-01-20T15:37:33.769Z,89.84
2023-01-20T15:41:31.709Z,89.75
2023-01-20T15:45:31.706Z,89.57
2023-01-20T15:49:29.736Z,89.60
2023-01-20T15:53:27.737Z,89.44
2023-01-20T15:57:27.699Z,89.41
2023-01-20T16:01:30.729Z,89.39
2023-01-20T16:05:28.691Z,89.53
2023-01-20T16:09:43.663Z,89.63
2023-01-20T16:13:41.670Z,89.67
2023-01-20T16:17:45.682Z,89.78
2023-01-20T16:21:45.474Z,89.85
2023-01-20T16:25:43.642Z,89.81
2023-01-20T16:29:48.832Z,89.58
2023-01-20T16:33:46.670Z,89.36
2023-01-20T16:37:44.640Z,89.25
2023-01-20T16:41:43.641Z,89.19
2023-01-20T16:45:43.696Z,89.21
2023-01-20T16:49:41.612Z,89.25
2023-01-20T16:53:39.691Z,89.25
2023-01-20T16:57:37.626Z,89.24
2023-01-20T17:01:36.690Z,89.25
2023-01-20T17:05:34.592Z,89.25
2023-01-20T17:09:32.648Z,89.30
2023-01-20T17:13:31.594Z,89.39
2023-01-20T17:17:30.651Z,89.57
2023-01-20T17:21:28.592Z,89.79
2023-01-20T17:25:29.682Z,89.74
2023-01-20T17:29:28.537Z,89.78
2023-01-20T17:33:26.661Z,89.80
2023-01-20T17:37:24.539Z,89.88
2023-01-20T17:41:22.565Z,89.90
2023-01-20T17:45:20.561Z,89.73
2023-01-20T17:49:18.679Z,89.82
2023-01-20T17:53:18.540Z,89.90
2023-01-20T17:57:16.541Z,89.90
2023-01-20T18:01:30.539Z,89.89
2023-01-20T18:05:28.603Z,89.95
2023-01-20T18:09:28.497Z,90.10
2023-01-20T18:13:26.526Z,90.21
2023-01-20T18:17:24.606Z,90.29
2023-01-20T18:21:36.463Z,90.33
2023-01-20T18:25:34.555Z,90.28
2023-01-20T18:29:32.500Z,90.30
2023-01-20T18:33:30.544Z,90.43
2023-01-20T18:37:28.624Z,90.61
2023-01-20T18:41:28.446Z,90.75
2023-01-20T18:45:26.507Z,90.98
2023-01-20T18:49:29.428Z,91.31
2023-01-20T18:53:29.879Z,91.62
2023-01-20T18:57:28.774Z,91.73
2023-01-20T19:01:29.523Z,91.69
2023-01-20T19:05:27.423Z,91.60
2023-01-20T19:09:26.503Z,91.59
2023-01-20T19:13:26.517Z,91.60
2023-01-20T19:17:24.431Z,91.26
2023-01-20T19:21:24.423Z,91.08
2023-01-20T19:25:23.459Z,91.13
2023-01-20T19:29:27.045Z,91.02
2023-01-20T19:33:26.452Z,91.03
2023-01-20T19:37:24.430Z,90.95
2023-01-20T19:41:24.416Z,90.70
2023-01-20T19:45:22.427Z,90.68
2023-01-20T19:49:22.763Z,90.62
2023-01-20T19:53:20.436Z,90.19
2023-01-20T19:57:18.420Z,90.30
2023-01-20T20:01:31.327Z,90.25
2023-01-20T20:05:29.728Z,90.14
2023-01-20T20:09:32.344Z,90.15
2023-01-20T20:13:31.359Z,90.19
2023-01-20T20:17:32.319Z,90.19
2023-01-20T20:21:33.430Z,90.14
2023-01-20T20:25:31.392Z,90.25
2023-01-20T20:29:31.323Z,90.53
2023-01-20T20:33:29.423Z,90.77
2023-01-20T20:37:27.379Z,90.79
2023-01-20T20:41:26.381Z,90.68
2023-01-20T20:45:26.406Z,90.49
2023-01-20T20:49:29.295Z,90.32
2023-01-20T20:53:32.418Z,90.43
2023-01-20T20:57:23.617Z,90.69
2023-01-20T21:01:22.458Z,90.90
2023-01-20T21:05:21.331Z,91.15
2023-01-20T21:09:19.276Z,91.29
2023-01-20T21:13:17.285Z,91.49
2023-01-20T21:17:16.284Z,91.56
2023-01-20T21:21:18.235Z,91.70
2023-01-20T21:25:16.438Z,91.79
2023-01-20T21:29:07.567Z,91.82
2023-01-20T21:33:05.235Z,91.77
2023-01-20T21:37:03.313Z,91.81
2023-01-20T21:41:10.302Z,91.83
2023-01-20T21:45:08.192Z,91.80
2023-01-20T21:49:38.238Z,91.68
2023-01-20T21:53:36.207Z,91.36
2023-01-20T21:57:41.172Z,91.32
2023-01-20T22:01:41.302Z,91.17
2023-01-20T22:05:39.168Z,91.47
2023-01-20T22:09:37.152Z,91.77
2023-01-20T22:13:36.185Z,91.76
2023-01-20T22:17:34.125Z,91.78
2023-01-20T22:21:32.272Z,91.73
2023-01-20T22:25:30.259Z,91.69
2023-01-20T22:29:28.206Z,91.66
2023-01-20T22:33:28.128Z,91.88
2023-01-20T22:37:26.143Z,91.49
2023-01-20T22:41:24.117Z,91.70
2023-01-20T22:45:22.135Z,91.92
2023-01-20T22:49:20.118Z,91.99
2023-01-20T22:53:18.260Z,92.03
2023-01-20T22:57:16.101Z,92.00
2023-01-20T23:01:14.198Z,91.98
2023-01-20T23:05:12.085Z,92.10
2023-01-20T23:09:10.157Z,92.29
2023-01-20T23:13:08.092Z,92.32
2023-01-20T23:17:07.063Z,92.42
2023-01-20T23:21:06.161Z,92.48
2023-01-20T23:25:05.165Z,92.54
2023-01-20T23:29:03.135Z,92.62
2023-01-20T23:33:01.151Z,92.66
2023-01-20T23:37:00.097Z,92.65
2023-01-20T23:40:58.201Z,92.57
2023-01-20T23:44:56.026Z,92.51
2023-01-20T23:48:54.157Z,92.53
2023-01-20T23:52:52.042Z,92.62
2023-01-20T23:56:50.728Z,92.70
